Time;durP1;ratioP1;P1;durP2;ratioP2;P2;SDS_P1;SDS_P2;PMS_P1;PMS_P2;Temp;Humidity;BMP_temperature;BMP_pressure;BME280_temperature;BME280_humidity;BME280_pressure;Samples;Min_cycle;Max_cycle;Signal;HPM_P1;HPM_P2
2021/05/10 00:02:08;;;;;;;0.90;0.80;;;;;;;19.64;42.69;95077.81;4986342;28;20050;-64
2021/05/10 00:04:34;;;;;;;0.95;0.65;;;;;;;19.50;42.67;95060.00;4987101;28;20065;-62
2021/05/10 00:06:59;;;;;;;2.15;0.65;;;;;;;19.57;42.62;95084.78;4987305;28;20081;-65
2021/05/10 00:09:25;;;;;;;1.05;0.70;;;;;;;19.58;42.77;95092.63;4988381;28;20540;-62
2021/05/10 00:11:50;;;;;;;0.52;0.52;;;;;;;19.59;42.59;95104.31;4989122;28;20177;-62
2021/05/10 00:14:26;;;;;;;0.95;0.80;;;;;;;19.58;42.59;95108.94;4988834;28;20102;-64
2021/05/10 00:16:51;;;;;;;0.77;0.77;;;;;;;19.57;42.72;95111.94;4986985;28;20525;-59
2021/05/10 00:19:17;;;;;;;0.80;0.80;;;;;;;19.46;42.81;95100.53;4987689;28;20081;-61
2021/05/10 00:21:42;;;;;;;1.38;1.23;;;;;;;19.57;42.67;95118.19;4986789;28;20449;-59
2021/05/10 00:24:08;;;;;;;0.82;0.65;;;;;;;19.53;42.72;95116.41;4988073;28;20038;-59
2021/05/10 00:26:34;;;;;;;0.70;0.70;;;;;;;19.56;42.63;95118.50;4987775;28;20042;-66
2021/05/10 00:28:59;;;;;;;2.22;0.90;;;;;;;19.60;42.75;95130.38;4987963;28;20456;-66
2021/05/10 00:31:25;;;;;;;1.40;0.63;;;;;;;19.60;42.74;95141.22;4988149;28;20077;-68
2021/05/10 00:33:50;;;;;;;0.70;0.70;;;;;;;19.55;42.87;95125.03;4988576;28;20532;-62
2021/05/10 00:36:16;;;;;;;1.02;0.90;;;;;;;19.59;42.96;95139.59;4987219;28;20140;-65
2021/05/10 00:38:42;;;;;;;0.60;0.60;;;;;;;19.38;42.92;95121.06;4987766;28;20077;-63
2021/05/10 00:41:07;;;;;;;0.60;0.60;;;;;;;19.58;42.82;95170.59;4988029;28;20054;-65
2021/05/10 00:43:33;;;;;;;1.25;0.57;;;;;;;19.34;43.00;95141.78;4985983;28;20046;-62
2021/05/10 00:45:58;;;;;;;2.42;1.40;;;;;;;19.52;42.85;95172.63;4987491;28;20082;-66
2021/05/10 00:48:24;;;;;;;2.38;0.60;;;;;;;19.59;42.99;95185.78;4989705;28;20058;-68
2021/05/10 00:50:50;;;;;;;0.65;0.65;;;;;;;19.41;43.03;95173.97;4987584;28;20049;-63
2021/05/10 00:53:15;;;;;;;0.73;0.55;;;;;;;19.57;42.90;95204.31;4987264;28;20545;-65
2021/05/10 00:55:41;;;;;;;0.73;0.73;;;;;;;19.57;42.96;95207.00;4987626;28;20145;-64
2021/05/10 00:58:07;;;;;;;0.80;0.80;;;;;;;19.41;43.00;95180.22;4987690;28;20163;-67
2021/05/10 01:00:36;;;;;;;2.70;0.73;;;;;;;19.54;43.11;95189.44;4986031;28;20053;-61
2021/05/10 01:03:01;;;;;;;1.55;0.75;;;;;;;19.47;43.02;95166.50;4986490;28;20532;-62
2021/05/10 01:05:27;;;;;;;1.02;1.02;;;;;;;19.53;43.13;95178.84;4986431;28;20086;-60
2021/05/10 01:07:52;;;;;;;0.73;0.73;;;;;;;19.55;42.89;95204.59;4986652;28;20068;-64
2021/05/10 01:10:19;;;;;;;0.55;0.55;;;;;;;19.49;43.15;95186.00;4985955;28;20046;-61
2021/05/10 01:12:45;;;;;;;1.30;0.82;;;;;;;19.07;43.01;95115.50;4970107;28;20517;-62
2021/05/10 01:15:12;;;;;;;0.60;0.60;;;;;;;19.38;43.20;95150.13;4986760;28;20081;-65
2021/05/10 01:17:38;;;;;;;1.60;0.50;;;;;;;19.50;43.09;95176.78;4985315;28;20061;-62
2021/05/10 01:20:06;;;;;;;2.08;0.80;;;;;;;19.54;43.35;95185.91;4969892;28;20603;-66
2021/05/10 01:22:40;;;;;;;1.10;0.80;;;;;;;19.53;43.17;95176.13;4985631;28;20046;-63
2021/05/10 01:25:08;;;;;;;0.77;0.77;;;;;;;19.41;43.17;95150.34;4985358;28;20081;-59
2021/05/10 01:27:33;;;;;;;0.82;0.70;;;;;;;19.52;43.12;95169.91;4969676;28;20057;-59
2021/05/10 01:29:59;;;;;;;1.00;0.60;;;;;;;19.50;43.34;95179.47;4968963;28;20038;-59
2021/05/10 01:32:24;;;;;;;1.95;0.60;;;;;;;19.47;43.31;95161.06;4969578;28;20073;-66
2021/05/10 01:34:50;;;;;;;1.20;0.80;;;;;;;19.48;43.17;95159.97;4987146;28;20237;-66
2021/05/10 01:37:16;;;;;;;1.77;0.70;;;;;;;19.46;43.15;95145.91;4986804;28;20057;-68
2021/05/10 01:39:41;;;;;;;2.00;0.95;;;;;;;18.96;43.08;95076.94;4985095;28;20065;-68
2021/05/10 01:42:07;;;;;;;1.08;1.00;;;;;;;19.43;43.41;95136.44;4986440;28;20581;-66
2021/05/10 01:44:32;;;;;;;0.50;0.50;;;;;;;19.40;43.24;95142.50;4985348;28;20054;-66
2021/05/10 01:46:58;;;;;;;1.13;0.60;;;;;;;19.48;43.32;95141.75;4986636;28;20081;-66
2021/05/10 01:49:23;;;;;;;1.10;0.73;;;;;;;19.48;42.99;95143.69;4989627;28;20151;-66
2021/05/10 01:51:49;;;;;;;0.82;0.70;;;;;;;19.36;43.33;95111.63;4985829;28;20509;-65
2021/05/10 01:54:14;;;;;;;1.17;0.70;;;;;;;19.47;43.36;95121.13;4986348;28;20073;-68
2021/05/10 01:56:40;;;;;;;1.40;0.73;;;;;;;19.47;43.39;95112.97;4986043;28;20500;-67
2021/05/10 01:59:06;;;;;;;0.73;0.65;;;;;;;19.46;43.42;95118.75;4968489;28;20058;-66
2021/05/10 02:01:31;;;;;;;0.85;0.70;;;;;;;19.38;43.46;95103.97;4986400;28;20106;-68
2021/05/10 02:03:59;;;;;;;0.98;0.80;;;;;;;19.39;43.25;95117.25;4985142;28;20523;-66
2021/05/10 02:06:25;;;;;;;0.70;0.70;;;;;;;19.38;43.37;95115.63;4986436;28;20054;-65
2021/05/10 02:08:51;;;;;;;5.38;1.45;;;;;;;19.43;43.60;95133.72;4986733;28;20521;-67
2021/05/10 02:11:16;;;;;;;1.30;0.65;;;;;;;19.43;43.31;95131.81;4985374;28;20050;-62
2021/05/10 02:13:42;;;;;;;0.93;0.60;;;;;;;19.39;43.20;95128.13;4984585;28;20046;-65
2021/05/10 02:16:08;;;;;;;0.95;0.85;;;;;;;19.31;43.26;95122.63;4986293;28;20540;-66
2021/05/10 02:18:34;;;;;;;1.15;0.52;;;;;;;19.29;43.24;95120.19;4986183;28;20166;-64
2021/05/10 02:21:00;;;;;;;2.42;0.70;;;;;;;19.23;43.59;95126.84;4984142;28;20038;-66
2021/05/10 02:23:27;;;;;;;1.95;0.68;;;;;;;19.34;43.79;95135.56;4968055;28;20058;-67
2021/05/10 02:25:57;;;;;;;1.02;0.80;;;;;;;19.38;43.70;95145.50;4985436;28;20108;-67
2021/05/10 02:28:24;;;;;;;0.60;0.60;;;;;;;19.37;43.53;95145.84;4987085;28;20080;-65
2021/05/10 02:30:51;;;;;;;0.55;0.55;;;;;;;19.24;43.77;95131.97;4986886;28;20062;-64
2021/05/10 02:33:18;;;;;;;1.50;0.70;;;;;;;19.37;43.66;95154.78;4952657;28;20050;-66
2021/05/10 02:35:44;;;;;;;1.13;0.63;;;;;;;19.30;43.71;95162.50;4986437;28;20069;-67
2021/05/10 02:38:10;;;;;;;0.75;0.68;;;;;;;19.27;43.59;95168.56;4968295;28;20070;-65
2021/05/10 02:40:36;;;;;;;0.65;0.65;;;;;;;19.26;43.83;95179.72;4969232;28;20414;-63
2021/05/10 02:43:02;;;;;;;0.60;0.60;;;;;;;19.33;43.82;95191.78;4969127;28;20054;-65
2021/05/10 02:45:28;;;;;;;0.60;0.60;;;;;;;19.34;43.66;95203.44;4984492;28;20942;-65
2021/05/10 02:47:54;;;;;;;0.70;0.70;;;;;;;19.31;43.94;95199.44;4985502;28;20108;-60
2021/05/10 02:50:21;;;;;;;1.08;0.95;;;;;;;19.30;43.75;95195.09;4988629;28;20468;-62
2021/05/10 02:52:47;;;;;;;0.93;0.70;;;;;;;19.31;43.73;95177.72;4985305;28;20505;-60
2021/05/10 02:55:13;;;;;;;0.73;0.73;;;;;;;19.27;43.64;95176.72;4985644;28;20046;-63
2021/05/10 02:57:39;;;;;;;0.63;0.63;;;;;;;19.29;43.79;95182.63;4967949;28;20138;-59
2021/05/10 03:00:06;;;;;;;0.80;0.70;;;;;;;19.19;43.60;95170.06;4985906;28;20069;-63
2021/05/10 03:02:32;;;;;;;0.80;0.60;;;;;;;19.22;43.53;95161.34;4985635;28;20136;-60
2021/05/10 03:04:57;;;;;;;1.42;0.90;;;;;;;19.28;43.74;95170.16;4985719;28;20604;-61
2021/05/10 03:07:23;;;;;;;0.50;0.50;;;;;;;19.09;43.82;95177.63;4986529;28;20054;-59
2021/05/10 03:09:48;;;;;;;1.67;0.90;;;;;;;19.26;43.69;95196.81;4984633;28;20046;-59
2021/05/10 03:12:14;;;;;;;1.38;0.70;;;;;;;19.25;43.86;95178.94;4985511;28;20420;-59
2021/05/10 03:14:39;;;;;;;2.10;1.15;;;;;;;19.21;43.67;95150.78;4985403;28;20081;-65
2021/05/10 03:17:05;;;;;;;1.00;0.75;;;;;;;19.18;43.72;95121.53;4985371;28;20438;-67
2021/05/10 03:19:31;;;;;;;0.90;0.77;;;;;;;19.18;43.84;95108.78;4984439;28;20050;-64
2021/05/10 03:21:56;;;;;;;0.50;0.50;;;;;;;19.15;44.21;95131.06;4984190;28;20042;-65
2021/05/10 03:24:22;;;;;;;1.25;0.60;;;;;;;19.22;44.02;95131.47;4984972;28;20042;-66
2021/05/10 03:26:48;;;;;;;1.60;0.70;;;;;;;19.21;43.95;95132.56;4985487;28;20534;-66
2021/05/10 03:29:13;;;;;;;1.00;0.90;;;;;;;19.03;44.11;95069.22;4985238;28;20517;-65
2021/05/10 03:31:39;;;;;;;1.63;0.75;;;;;;;19.16;44.06;95092.00;4985595;28;20064;-65
2021/05/10 03:34:04;;;;;;;0.68;0.60;;;;;;;19.17;44.20;95099.00;4984187;28;20446;-64
2021/05/10 03:36:30;;;;;;;1.00;0.60;;;;;;;19.18;44.21;95094.38;4983436;28;20052;-66
2021/05/10 03:38:56;;;;;;;0.80;0.80;;;;;;;19.04;43.96;95078.16;4983669;28;20046;-68
2021/05/10 03:41:24;;;;;;;0.98;0.65;;;;;;;19.04;44.29;95091.72;4986191;28;20455;-63
2021/05/10 03:43:50;;;;;;;4.68;0.90;;;;;;;19.00;44.08;95093.44;4975548;28;20058;-66
2021/05/10 03:46:16;;;;;;;0.88;0.57;;;;;;;19.11;44.16;95111.09;4946690;28;20351;-64
2021/05/10 03:48:41;;;;;;;13.30;0.85;;;;;;;19.08;43.96;95119.84;4985119;28;20057;-62
2021/05/10 03:51:07;;;;;;;0.75;0.60;;;;;;;19.08;44.00;95114.41;4986427;28;20053;-65
2021/05/10 03:53:33;;;;;;;1.02;0.70;;;;;;;19.02;43.96;95105.56;4987295;28;20085;-67
2021/05/10 03:55:58;;;;;;;1.35;0.70;;;;;;;19.11;44.16;95134.72;4986850;28;20074;-65
2021/05/10 03:58:24;;;;;;;0.85;0.80;;;;;;;19.00;44.53;95118.66;4989627;28;20057;-63
2021/05/10 04:00:50;;;;;;;0.60;0.60;;;;;;;19.04;44.18;95137.84;4987508;28;20409;-63
2021/05/10 04:03:17;;;;;;;1.63;0.80;;;;;;;19.01;44.36;95138.44;4988385;28;20126;-65
2021/05/10 04:11:10;;;;;;;2.47;0.80;;;;;;;19.07;44.21;95198.84;4988161;28;20045;-62
2021/05/10 04:13:42;;;;;;;0.75;0.70;;;;;;;18.97;44.29;95197.97;4969352;28;20108;-62
2021/05/10 04:16:08;;;;;;;1.00;0.90;;;;;;;18.98;44.21;95207.69;4978290;28;20054;-65
2021/05/10 04:18:33;;;;;;;1.60;0.70;;;;;;;18.90;44.35;95175.84;4986601;28;20061;-64
2021/05/10 18:14:10;;;;;;;5.57;2.45;;;;;;;18.32;52.78;95459.09;5124617;27;20421;-56
2021/05/10 18:16:37;;;;;;;3.42;2.60;;;;;;;18.32;52.95;95456.41;5114266;28;20051;-56
2021/05/10 18:19:09;;;;;;;4.70;2.53;;;;;;;18.38;53.05;95457.91;5111111;28;20121;-56
2021/05/10 18:21:34;;;;;;;2.72;2.47;;;;;;;18.49;52.59;95466.75;5098641;28;20081;-55
2021/05/10 18:24:00;;;;;;;3.15;2.85;;;;;;;18.58;52.14;95466.88;5108836;28;20760;-56
2021/05/10 18:26:25;;;;;;;4.30;2.30;;;;;;;18.66;51.86;95457.25;5116507;28;20047;-56
2021/05/10 18:28:52;;;;;;;2.47;2.20;;;;;;;18.73;51.51;95463.16;5125122;28;20047;-57
2021/05/10 18:31:18;;;;;;;3.70;2.35;;;;;;;18.81;51.11;95467.94;5125450;28;20040;-59
2021/05/10 18:33:43;;;;;;;2.97;2.28;;;;;;;18.87;51.02;95466.75;5113905;28;20048;-57
2021/05/10 18:36:11;;;;;;;3.00;2.20;;;;;;;18.91;50.98;95462.34;5125112;28;20674;-57
2021/05/10 18:38:38;;;;;;;5.32;2.05;;;;;;;18.96;50.60;95439.75;5103278;28;20057;-58
2021/05/10 18:41:04;;;;;;;3.42;2.60;;;;;;;18.99;50.41;95464.41;5123751;28;20126;-58
2021/05/10 18:43:29;;;;;;;3.85;2.63;;;;;;;19.03;50.17;95467.31;5123676;28;20126;-58
2021/05/10 18:45:55;;;;;;;4.40;2.65;;;;;;;19.04;50.28;95467.03;5114453;28;20043;-58
2021/05/10 18:48:23;;;;;;;2.05;1.85;;;;;;;19.09;50.09;95459.91;5118426;28;20833;-58
2021/05/10 18:50:51;;;;;;;3.42;2.22;;;;;;;19.11;49.69;95463.91;5125657;28;20058;-58
2021/05/10 18:53:16;;;;;;;2.10;1.92;;;;;;;19.14;49.61;95459.84;5121034;28;20063;-58
2021/05/10 18:55:44;;;;;;;4.53;2.10;;;;;;;19.15;49.48;95466.84;5117665;28;20040;-57
2021/05/10 18:58:10;;;;;;;3.05;2.50;;;;;;;19.17;49.40;95467.38;5121574;28;20051;-58
2021/05/10 19:00:36;;;;;;;2.50;2.20;;;;;;;19.17;49.40;95468.16;5117163;28;20123;-57
2021/05/10 19:03:01;;;;;;;2.67;1.70;;;;;;;19.19;49.19;95484.16;5099749;28;20056;-58
2021/05/10 19:05:27;;;;;;;2.97;1.98;;;;;;;19.19;49.09;95478.75;5109039;28;20172;-58
2021/05/10 19:07:52;;;;;;;3.15;1.98;;;;;;;19.20;49.28;95470.31;5107648;28;20479;-58
2021/05/10 19:10:19;;;;;;;2.40;2.17;;;;;;;19.21;49.27;95465.66;5114046;28;20051;-59
2021/05/10 19:12:45;;;;;;;2.83;2.08;;;;;;;19.21;49.11;95484.69;5123115;28;20162;-58
2021/05/10 19:15:11;;;;;;;2.20;2.00;;;;;;;19.22;48.88;95486.28;5111684;28;20838;-57
2021/05/10 19:17:36;;;;;;;2.10;1.73;;;;;;;19.22;48.67;95478.97;5111100;28;20049;-58
2021/05/10 19:20:02;;;;;;;2.13;1.63;;;;;;;19.22;48.98;95492.53;5121864;28;20057;-59
2021/05/10 19:22:27;;;;;;;2.03;1.70;;;;;;;19.22;48.58;95503.38;5116047;28;20052;-58
2021/05/10 19:24:52;;;;;;;3.17;1.80;;;;;;;19.23;48.96;95510.41;5105176;28;20047;-58
2021/05/10 19:27:18;;;;;;;1.70;1.60;;;;;;;19.24;48.52;95522.06;5101459;28;20055;-59
2021/05/10 19:29:44;;;;;;;1.70;1.60;;;;;;;19.24;48.75;95520.19;5110078;28;20047;-58
2021/05/10 19:32:11;;;;;;;1.77;1.58;;;;;;;19.24;48.69;95516.66;5097858;28;20048;-58
2021/05/10 19:34:36;;;;;;;2.28;1.58;;;;;;;19.23;48.37;95513.13;5088560;28;20494;-58
2021/05/10 19:37:02;;;;;;;1.77;1.60;;;;;;;19.24;48.43;95503.06;5090170;28;20043;-58
2021/05/10 19:39:27;;;;;;;1.60;1.50;;;;;;;19.23;48.55;95501.47;5107450;28;20069;-58
2021/05/10 19:41:53;;;;;;;1.83;1.40;;;;;;;19.22;48.36;95514.25;5100701;28;20043;-57
2021/05/10 19:44:19;;;;;;;1.60;1.50;;;;;;;19.22;48.11;95527.81;5109351;28;20588;-58
2021/05/10 19:49:21;;;;;;;1.10;1.10;;;;;;;19.22;48.45;95530.53;5109910;28;20490;-58
2021/05/10 20:02:19;;;;;;;1.35;1.25;;;;;;;19.20;48.31;95570.75;5089139;28;20598;-58
2021/05/10 20:04:44;;;;;;;1.50;1.40;;;;;;;19.20;47.90;95578.91;5094032;28;20043;-58
2021/05/10 20:07:09;;;;;;;1.40;1.30;;;;;;;19.20;48.10;95591.63;5094042;28;20054;-59
2021/05/10 20:09:35;;;;;;;1.33;1.05;;;;;;;19.20;48.34;95583.50;5109020;28;20070;-60
2021/05/10 20:12:00;;;;;;;1.88;1.30;;;;;;;19.19;48.26;95577.25;5110093;28;20040;-60
2021/05/10 20:14:26;;;;;;;1.60;1.50;;;;;;;19.19;48.24;95574.53;5089447;28;20055;-60
2021/05/10 20:16:51;;;;;;;1.40;1.23;;;;;;;19.19;48.32;95560.16;5099989;28;20051;-59
2021/05/10 20:19:17;;;;;;;1.60;1.17;;;;;;;19.18;48.34;95558.53;5077684;28;20044;-61
2021/05/10 20:21:42;;;;;;;1.23;1.10;;;;;;;19.19;48.02;95562.88;4999121;28;20047;-61
2021/05/10 20:24:08;;;;;;;1.10;1.02;;;;;;;19.19;48.00;95562.88;5014350;28;20117;-58
2021/05/10 20:26:33;;;;;;;1.38;1.08;;;;;;;19.19;47.95;95565.59;5080213;28;20047;-60
2021/05/10 20:28:59;;;;;;;2.15;1.15;;;;;;;19.19;47.88;95562.88;5080159;28;20048;-59
2021/05/10 20:31:24;;;;;;;1.50;0.80;;;;;;;19.18;48.10;95561.25;5077593;28;20112;-59
2021/05/10 20:33:50;;;;;;;0.88;0.88;;;;;;;19.17;47.66;95560.47;5078380;28;20060;-60
2021/05/10 20:36:15;;;;;;;0.95;0.95;;;;;;;19.17;47.58;95559.66;5093311;28;20050;-58
2021/05/10 20:38:40;;;;;;;1.00;1.00;;;;;;;19.16;47.62;95553.44;5085377;28;20047;-58
2021/05/10 20:41:06;;;;;;;0.70;0.60;;;;;;;19.16;47.86;95548.00;5083324;28;20047;-59
2021/05/10 20:43:31;;;;;;;1.05;1.00;;;;;;;19.15;47.84;95554.53;5108625;28;20051;-61
2021/05/10 20:45:58;;;;;;;1.17;0.80;;;;;;;19.15;47.95;95551.81;5090623;28;20069;-61
2021/05/10 20:48:23;;;;;;;0.88;0.88;;;;;;;19.14;47.65;95550.22;5089554;28;20060;-59
2021/05/10 20:50:49;;;;;;;0.60;0.60;;;;;;;19.15;47.89;95549.09;5086851;28;20043;-59
2021/05/10 20:53:14;;;;;;;1.10;0.73;;;;;;;19.15;47.76;95537.44;5093113;28;20574;-60
2021/05/10 20:55:39;;;;;;;1.08;1.00;;;;;;;19.13;47.68;95535.00;5064526;28;20563;-58
2021/05/10 20:58:05;;;;;;;0.80;0.80;;;;;;;19.14;47.63;95538.56;5108686;28;20511;-59
2021/05/10 21:00:30;;;;;;;1.40;1.10;;;;;;;19.12;47.63;95546.97;5108421;28;20055;-60
2021/05/10 21:02:56;;;;;;;0.73;0.73;;;;;;;19.12;47.76;95551.59;5108079;28;20052;-60
2021/05/10 21:05:22;;;;;;;0.80;0.80;;;;;;;19.11;47.79;95561.63;5108517;28;20044;-59
2021/05/10 21:07:47;;;;;;;0.77;0.77;;;;;;;19.10;47.59;95565.47;5098496;28;20044;-59
2021/05/10 21:10:12;;;;;;;0.68;0.68;;;;;;;19.08;47.75;95567.66;5098860;28;20052;-59
2021/05/10 21:12:38;;;;;;;0.50;0.50;;;;;;;19.10;47.49;95575.53;5096705;28;20036;-58
2021/05/10 21:15:05;;;;;;;0.60;0.60;;;;;;;19.08;47.79;95573.09;5104654;28;20050;-58
2021/05/10 21:17:31;;;;;;;1.20;0.47;;;;;;;19.08;47.95;95570.38;5094592;28;20101;-58
2021/05/10 21:19:56;;;;;;;0.80;0.50;;;;;;;19.09;47.55;95557.59;5067400;28;20048;-58
2021/05/10 21:22:22;;;;;;;0.80;0.80;;;;;;;19.09;47.55;95563.03;5085927;28;20093;-58
2021/05/10 21:24:47;;;;;;;0.47;0.47;;;;;;;19.09;47.47;95568.47;5088634;28;20582;-58
2021/05/10 21:27:12;;;;;;;0.50;0.50;;;;;;;19.07;47.45;95571.47;5070649;28;20044;-58
2021/05/10 21:29:39;;;;;;;1.08;0.93;;;;;;;19.07;47.63;95557.09;5088513;28;20040;-60
2021/05/10 21:32:05;;;;;;;0.40;0.40;;;;;;;19.05;47.61;95557.38;5088161;28;20040;-58
2021/05/10 21:34:31;;;;;;;0.65;0.65;;;;;;;19.04;47.27;95551.16;5087216;28;20058;-58
2021/05/10 21:36:57;;;;;;;0.98;0.90;;;;;;;19.04;47.29;95551.16;5070750;28;20048;-60
2021/05/10 21:39:22;;;;;;;1.10;1.00;;;;;;;19.02;47.34;95542.50;5088592;28;20781;-58
2021/05/10 21:41:47;;;;;;;1.55;1.05;;;;;;;19.01;47.37;95540.91;5070447;28;20054;-58
2021/05/10 21:44:13;;;;;;;0.90;0.90;;;;;;;19.01;47.19;95532.75;5085916;28;20437;-61
2021/05/10 21:46:38;;;;;;;0.63;0.60;;;;;;;18.99;47.25;95521.38;5087761;28;20056;-58
2021/05/10 21:49:06;;;;;;;0.80;0.80;;;;;;;18.99;47.48;95515.97;5087152;28;20051;-60
2021/05/10 21:51:32;;;;;;;0.90;0.80;;;;;;;18.98;47.16;95519.75;5087627;28;20754;-61
2021/05/10 21:53:58;;;;;;;1.42;1.17;;;;;;;18.97;47.27;95520.88;5090973;28;20062;-60
2021/05/10 21:56:23;;;;;;;1.08;0.98;;;;;;;18.97;47.38;95534.44;5088477;28;20051;-60
2021/05/10 21:58:49;;;;;;;1.55;0.98;;;;;;;18.96;47.21;95537.44;5088359;28;20050;-60
2021/05/10 22:01:15;;;;;;;2.53;1.33;;;;;;;18.95;46.88;95531.22;5071003;28;20048;-60
2021/05/10 22:03:40;;;;;;;3.42;1.83;;;;;;;18.94;46.79;95518.72;5053294;28;20572;-60
2021/05/10 22:06:06;;;;;;;3.45;1.77;;;;;;;18.92;47.05;95512.78;5103498;28;20048;-60
2021/05/10 22:08:31;;;;;;;4.20;2.30;;;;;;;18.91;46.91;95510.38;5088081;28;20052;-59
2021/05/10 22:10:57;;;;;;;3.80;2.20;;;;;;;18.90;46.99;95504.13;5088468;28;20087;-60
2021/05/10 22:13:22;;;;;;;4.70;2.10;;;;;;;18.89;47.00;95493.59;5103574;28;20055;-60
2021/05/10 22:15:48;;;;;;;5.15;2.88;;;;;;;18.89;46.76;95488.19;5088295;28;20897;-60
2021/05/10 22:18:13;;;;;;;5.45;2.60;;;;;;;18.88;46.90;95492.78;5088269;28;20070;-61
2021/05/10 22:20:44;;;;;;;5.82;3.53;;;;;;;18.88;46.93;95491.97;5088014;28;20051;-60
2021/05/10 22:23:09;;;;;;;5.10;3.60;;;;;;;18.86;46.68;95494.97;5088497;28;20059;-61
2021/05/10 22:25:39;;;;;;;5.43;3.35;;;;;;;18.84;47.00;95489.03;5088036;28;20044;-60
2021/05/10 22:30:34;;;;;;;5.28;3.50;;;;;;;18.83;46.60;95480.09;5070177;28;20082;-60
2021/05/10 22:33:00;;;;;;;6.03;3.33;;;;;;;18.82;46.59;95511.06;5087628;28;20056;-59
2021/05/10 22:35:25;;;;;;;7.10;3.83;;;;;;;18.82;46.54;95524.63;5088168;28;20529;-60
2021/05/10 22:38:09;;;;;;;6.28;3.60;;;;;;;18.80;46.68;95488.84;5087135;28;20040;-60
2021/05/10 22:41:25;;;;;;;6.88;4.05;;;;;;;18.80;46.80;95496.16;5087920;28;20139;-60
2021/05/10 22:48:41;;;;;;;5.80;3.42;;;;;;;18.76;46.66;95455.22;5070347;28;20044;-60
2021/05/10 23:02:33;;;;;;;7.65;3.60;;;;;;;18.71;46.48;95468.06;5090956;28;20122;-59
2021/05/10 23:13:05;;;;;;;6.80;3.40;;;;;;;18.67;46.52;95464.31;5071174;28;20044;-60
2021/05/10 23:17:51;;;;;;;5.03;3.17;;;;;;;18.64;46.47;95430.47;5054320;28;20080;-60
2021/05/10 23:20:16;;;;;;;4.95;2.75;;;;;;;18.64;46.25;95452.94;5060361;28;20046;-59
2021/05/10 23:22:42;;;;;;;5.05;3.17;;;;;;;18.63;46.29;95475.75;5091096;28;20620;-59
2021/05/10 23:25:08;;;;;;;4.68;3.10;;;;;;;18.62;46.38;95487.69;5090895;28;20036;-59
2021/05/10 23:27:33;;;;;;;4.70;2.90;;;;;;;18.61;46.21;95483.38;5090979;28;20129;-59
2021/05/10 23:29:58;;;;;;;4.32;2.65;;;;;;;18.60;46.41;95498.03;5072794;28;20221;-59
2021/05/10 23:32:24;;;;;;;5.28;3.17;;;;;;;18.61;46.42;95506.97;5090916;28;20499;-60
2021/05/10 23:34:49;;;;;;;3.88;2.65;;;;;;;18.60;46.30;95492.59;5091161;28;20043;-58
2021/05/10 23:37:15;;;;;;;3.63;2.45;;;;;;;18.60;46.13;95483.66;5091114;28;20044;-60
2021/05/10 23:39:41;;;;;;;3.30;2.30;;;;;;;18.59;46.25;95491.00;5090821;28;20553;-59
2021/05/10 23:42:06;;;;;;;3.28;2.53;;;;;;;18.59;46.41;95495.59;5090750;28;20048;-60
2021/05/10 23:44:32;;;;;;;3.35;2.13;;;;;;;18.56;46.17;95494.28;5072734;28;20047;-59
2021/05/10 23:46:59;;;;;;;4.43;2.45;;;;;;;18.57;46.12;95498.63;5072174;28;20384;-58
2021/05/10 23:49:24;;;;;;;3.35;1.90;;;;;;;18.57;46.09;95503.22;5083718;28;20052;-59
2021/05/10 23:51:49;;;;;;;3.15;2.00;;;;;;;18.55;46.10;95495.41;5090197;28;20414;-58
2021/05/10 23:54:15;;;;;;;3.22;1.75;;;;;;;18.54;46.40;95501.91;5090269;28;20047;-58
2021/05/10 23:56:40;;;;;;;3.70;1.95;;;;;;;18.54;46.34;95493.78;5092291;28;20051;-60
2021/05/10 23:59:05;;;;;;;2.60;1.75;;;;;;;18.53;46.21;95481.31;5071211;28;20089;-58
